Weather observations for the past three days for
San Antonio - Kelly Field
Metric (Imperial)
Date Time (cdt) Wind (kph) Vis. (km) Weather Sky Cond. Temperature (ºC) Relative Humidity Wind Chill (°C) Heat Index (°C) Pressure Precipitation (cm)
Air Dwpt 6 hour altimeter (cm) sea level (mb) 1 hr 3 hr 6 hr
Max. Min.
02 09:55 Calm 16.09 Fair CLR 28.5 24 77% 33 76.12 1014.0
02 08:55 SE 7 14.48 Fair CLR 27 24 84% 30 76.12 1014.0
02 07:55 Calm 11.27 Fair CLR 25.6 23.4 88% 27 76.07 1013.3
02 06:55 Calm 16.09 Fair CLR 25.1 23.1 28.3 25 89% 26 76.05 1012.9
02 05:57 S 6 16.09 A Few Clouds FEW012 25.5 23.1 87% 27 76.05 1012.9
02 04:55 S 9 16.09 Fair CLR 26 22.9 83% 28 76.02 1012.6
02 03:55 SE 9 16.09 Fair CLR 26.2 22.2 79% 28 76.05 1012.9
02 02:55 SE 6 16.09 Fair CLR 26.3 21.9 77% 28 76.05 1012.9
02 01:55 SE 11 16.09 Fair CLR 27.7 21.5 69% 30 76.05 1012.9
02 00:55 SE 11 16.09 Fair CLR 28.4 20.6 36.5 28.3 63% 30 76.02 1012.6
01 23:55 SE 20 16.09 Fair CLR 30.5 19.5 52% 32 76.02 1012.6
01 22:55 E 20 16.09 Fair CLR 31.5 20.4 52% 34 76 1012.2
01 21:55 E 15 16.09 A Few Clouds FEW080 33.1 19.5 45% 35 75.92 1011.2
01 20:55 SE 7 16.09 Fair CLR 32.3 19.2 46% 34 75.84 1010.2
01 19:55 SE 11 16.09 Fair CLR 34.7 17.8 37% 36 75.82 1009.9
01 18:55 SE 6 16.09 Fair CLR 36.6 16.2 37.7 34.3 30% 37 75.82 1009.9
01 17:55 SE 7 16.09 Fair CLR 37.1 16.1 29% 38 75.84 1010.2
01 16:55 N 9 16.09 Fair CLR 37.6 15.9 28% 38 75.84 1010.2
01 15:55 E 9 16.09 A Few Clouds FEW200 37 16.5 30% 38 75.9 1010.9
01 14:55 S 6 16.09 Fair CLR 35.8 17 33% 37 75.97 1011.9
01 13:55 S 13 14.48 Fair CLR 35 17.7 36% 36 76.02 1012.6
01 12:55 S 13 16.09 A Few Clouds FEW055 34.6 18.2 34.6 25.7 38% 36 76.1 1013.6
01 11:56 Calm 16.09 Fair CLR 32.6 19.1 45% 34 76.15 1014.3
01 10:55 SE 9 16.09 Fair CLR 31.4 20.6 53% 34 76.17 1014.6
01 08:56 Vrbl 6 16.09 Fair CLR 28.1 23.2 75% 32 76.15 1014.3
01 07:55 Calm 11.27 Fair CLR 26.6 23.8 85% 29 76.12 1014.0
01 06:55 SE 6 14.48 Fair CLR 25.6 23.4 28.4 25.5 88% 27 76.12 1014.0
01 05:55 Calm 14.48 A Few Clouds FEW016 26.4 23.6 85% 29 76.1 1013.6
01 04:55 S 6 16.09 Overcast BKN016 OVC022 27 24 84% 30 76.1 1013.6
01 03:55 S 7 16.09 Overcast OVC015 26.9 23.9 84% 30 76.12 1013.9
01 02:55 SE 13 16.09 Mostly Cloudy BKN017 27.2 23.8 82% 30 76.1 1013.6
01 01:55 SE 17 16.09 Fair CLR 27.6 22.9 76% 31 76.1 1013.6
01 00:55 SE 19 12.87 Fair CLR 28.3 22.3 36.4 28.2 70% 31 76.1 1013.6
31 23:55 SE 19 16.09 Fair CLR 29.4 21.3 62% 32 76.05 1012.9
31 22:55 SE 30 G 37 16.09 Fair CLR 30.7 20.3 54% 33 76.02 1012.6
31 21:55 SE 28 G 39 16.09 Fair CLR 31.8 20.4 51% 34 75.97 1011.9
31 20:55 E 28 G 37 16.09 A Few Clouds FEW080 34.2 19 41% 36 75.9 1010.9
31 19:55 E 15 16.09 Fair CLR 35 18.5 38% 37 75.84 1010.2
31 17:55 E 15 16.09 Fair CLR 37.2 16.7 30% 38 75.84 1010.2
31 16:55 E 11 16.09 Fair CLR 37.4 16.8 30% 38 75.87 1010.5
31 15:55 E 9 12.87 Fair CLR 36.5 18.5 35% 38 75.92 1011.2
31 14:55 E 19 16.09 Partly Cloudy FEW065 SCT170 36.6 19.5 37% 39 76.02 1012.6
31 13:56 Vrbl 11 16.09 Partly Cloudy SCT060 34.8 19.6 41% 37 76.07 1013.3
31 12:56 SE 19 G 26 16.09 Partly Cloudy SCT050 34.4 20.3 34.4 26.2 44% 37 76.12 1014.0
31 11:58 SE 9 16.09 A Few Clouds FEW035 33 19.8 46% 35 76.15 1014.3
31 10:55 SE 19 16.09 Partly Cloudy SCT026 31.4 22.4 59% 35 76.17 1014.6
31 09:55 S 11 12.87 Mostly Cloudy SCT018 BKN024 29.6 23.7 71% 34 76.15 1014.3
31 08:55 SE 9 12.87 A Few Clouds FEW011 27.6 24.4 83% 31 76.12 1014.0
31 07:55 SE 9 12.87 Fair CLR 26.7 24.3 87% 30 76.1 1013.6
31 06:55 SE 7 16.09 Overcast OVC011 26.6 24 27.8 26.1 86% 29 76.1 1013.6
31 05:55 SE 7 16.09 Partly Cloudy FEW011 SCT016 26.4 23.8 86% 29 76.07 1013.3
31 04:55 SE 6 16.09 Mostly Cloudy BKN014 26.6 23.8 85% 29 76.07 1013.3
31 03:55 SE 11 16.09 Overcast OVC013 26.8 23.8 84% 30 76.1 1013.6
31 02:55 SE 7 16.09 Mostly Cloudy BKN016 26.6 23.6 84% 29 76.1 1013.6
31 01:55 SE 13 16.09 Partly Cloudy SCT017 27.2 23.4 80% 30 76.1 1013.6
31 00:55 SE 17 16.09 Fair CLR 27.9 22.8 36.3 27.9 74% 31 76.1 1013.6
30 23:55 SE 22 16.09 Fair CLR 28.9 21.9 66% 32 76.07 1013.3
30 22:55 SE 19 16.09 Fair CLR 30.2 21.3 59% 33 76.02 1012.6
30 21:55 SE 22 16.09 Fair CLR 31.6 20.2 51% 34 75.97 1011.9
30 20:55 SE 24 16.09 Fair CLR 32.9 21.1 50% 36 75.87 1010.6
30 19:55 SE 28 16.09 Mostly Cloudy BKN075 34.3 20.2 44% 37 75.84 1010.2
30 18:55 SE 22 16.09 Fair CLR 36.4 17.5 37.1 33.4 33% 38 75.79 1009.5
30 17:55 SE 13 16.09 Fair CLR 35.6 18.2 36% 37 75.82 1009.9
30 16:55 E 13 16.09 Fair CLR 36.4 18.4 35% 38 75.84 1010.2
30 15:55 SE 9 16.09 A Few Clouds FEW070 36.1 19.1 37% 38 75.9 1010.9
30 14:55 SE 13 16.09 Fair CLR 34.2 19.4 42% 36 76 1012.3
30 13:55 E 7 16.09 A Few Clouds FEW060 34.2 19.8 43% 37 76.07 1013.3
30 12:55 Vrbl 9 16.09 Partly Cloudy SCT050 33.4 20.5 33.6 25.4 47% 36 76.15 1014.3
30 11:55 Calm 16.09 A Few Clouds FEW039 32.1 21.9 55% 36 76.17 1014.7
Date Time (cdt) Wind (kph) Vis. (km) Weather Sky Cond. Air Dwpt Max. Min. Relative Humidity Wind Chill (°C) Heat Index (°C) altimeter (cm) sea level (mb) 1 hr 3 hr 6 hr
6 hour
Temperature (ºC) Pressure Precipitation (cm)